Ma 2014. április 21., hétfő, Konrád és Zelmira napja van.
cheap cialis

Hírek

Köszönetnyilvánítás

Köszönjük a Kőrös-KerTÉSZ Zrt. segítségét, amellyel a - Szabolcs és Gyuri számára szervezett- repülős rendezvényt támogatta.

 

Szabi blog-bejegyzése a repülésről

Részlet Szabi blogjából...

Mindenek előtt szeretnék köszönetet mondani a felajánló Vári Gyulának és csapatának hogy lehetővé tették a nem átlagos repülést, és Balázséknak a Morningshow-ban hogy összehozta a szereplőket, és nélkülük nem jöhetett volna létre az élmény-repülés. Bővebben...

 

Gyuri születésnapi meglepetése...

Nézd meg képes beszámolóinkat a híreinkben bemutatott Gyuri születésnapi meglepetéséről itt.

 

   

Gyuri rövid története...

SEGÍTS, hogy az álom valóra válhasson!

Budakeszin él egy 23 éves egyetemista fiú, aki egy súlyos betegség következtében egyik napról a másikra elvesztette végtagjait. Álma, hogy az egyetem befejezése után mérnök informatikus legyen, a rehabilitáció sikerességén múlik, és ez csak az elvesztett végtagok m?vi pótlásával lehetséges. B?vebben...

cheap iagra 100mg - viagra

 

Hungarocontrol - Napi légtérhasználati terv

 

 

A Légtérfelhasználási terv (az aktuális terv itt megtekinthető) az adott nap 06.00 UTC-től a következő nap 06.00 UTC-ig 24 órás periódusban tartalmazza az Időszakosan korlátozott légterek (Temporary Restricted Areas – TRAs), a Veszélyes légterek (Danger Areas – DAs) és az Eseti légterek adatait, valamint a Feltételes útvonalak (Conditional Routes – CDRs) nyitvatartását.

Kapcsolat:
Telefon: 06-1-296-9258
HM 22/50-53
Fax: 06-1-296-9117
HM 22/50-24

   

1. oldal / 2

Események

Last month April 2014 Next month
M T W T F S S
week 14 1 2 3 4 5 6
week 15 7 8 9 10 11 12 13
week 16 14 15 16 17 18 19 20
week 17 21 22 23 24 25 26 27
week 18 28 29 30

Szavazás

Mi az, amit szívesen kipróbálnál?

Hőlégballon - 9.1%
Sárkányrepülő - 3%
Ejtőernyő - 12.1%
Motoros repülőgép - 0%
Motoros műrepülőgép - 24.2%
Vitorlázó repülő - 3%
Vadászrepülő - 48.5%

Total votes: 33
The voting for this poll has ended

Következik

Látogatói statisztika



54.4%Hungary Hungary
20.3%United States United States
2.8%Brazil Brazil
2.5%Russian Federation Russian Federation
2.2%Romania Romania
2.2%Germany Germany
2.2%Italy Italy
1.9%Ukraine Ukraine
1.2%Kuwait Kuwait
0.9%Austria Austria

Ma: 1
Tegnap: 2
A héten: 1
Múlt héten: 33
Ebben a hónapban: 101
Múlt hónapban: 167
Összesen: 418


Arcképcsarnok

WindFinder


forrás:windfinder.com

Elérhetőségeink

 
        
                           
 
Telefon:  +3620 777-9000
 
Email:        varigyula@varigyula.hu 
            
            
        
 

Aviation WX

[source: ADDS]
METAR
TAF LHKE 210145Z 2103/2112 VRB02MPS CAVOK PROB30 TEMPO 2103/2106 5000 BR SCT040 SCT080 BECMG 2106/2109 12005MPS TAF
TAF LHKE 210145Z 2103/2112 VRB02MPS CAVOK PROB30 TEMPO 2103/2106 5000 BR SCT040 SCT080 BECMG 2106/2109 12005MPS =